Reno (UNR), Valley Road, Nevada Weather observations

Data are for observation ending at time listed.
 Day   Time    Ave.   Ave.  Ave.  Vector   Max.    Total    Solar   Rl      Baro.   Ave.  
  of    of     Air    Rel.  Wind   Wind    Wind   Precip.   Rad.    in      Pres.   Soil  
Year   Day     Temp.  Hum.  Speed  Dir.    Gust                                     Temp. 
2016   (PST)    F      %     mph   deg.    mph      in.     W/m2    W/m2     mb.     F   
-----------------------------------------------------------------------------------------
 270    3:20   47.5    53    1.0   279      2.0     0.00       0     302    867.2   66.4
 270    3:30   47.1    56    0.5     7      1.9     0.00       0     302    867.2   66.3
 270    3:40   46.4    57    1.7   309      2.3     0.00       0     300    867.2   66.2
 270    3:50   46.4    57    1.6   312      2.2     0.00       0     301    867.3   66.1
 270    4:00   46.1    58    1.4   318      2.7     0.00       0     298    867.3   66.0
 270    4:10   45.7    58    1.7   318      2.3     0.00       0     298    867.3   65.9
 270    4:20   45.5    58    1.3   313      2.9     0.00       0     299    867.3   65.8
 270    4:30   45.4    60    1.5   303      3.0     0.00       0     298    867.3   65.7
 270    4:40   45.2    59    1.2   328      2.4     0.00       0     296    867.3   65.6
 270    4:50   45.4    59    1.6   297      2.7     0.00       0     297    867.4   65.5
 270    5:00   45.2    59    0.8   327      2.2     0.00       0     297    867.5   65.4
 270    5:10   44.8    58    1.1   261      2.2     0.00       0     294    867.6   65.4
 270    5:20   44.9    59    1.9   317      3.0     0.00       0     295    867.7   65.3
 270    5:30   44.6    60    1.4   273      2.2     0.00       0     294    867.7   65.2
 270    5:40   44.0    61    1.7   312      2.7     0.00       1     294    867.8   65.1
 270    5:50   43.6    62    1.8   322      2.6     0.00       3     294    867.8   65.0
 270    6:00   43.4    64    2.2   331      3.1     0.00       7     294    867.9   64.9
 270    6:10   44.2    62    2.1   307      2.8     0.00      13     294    867.9   64.8
 270    6:20   45.6    58    2.1   248      2.9     0.00      39     292    868.0   64.7
 270    6:30   48.9    52    2.0   311      2.8     0.00      72     296    867.9   64.6
 270    6:40   50.2    53    1.5   354      2.6     0.00     110     298    868.0   64.5
 270    6:50   53.2    44    0.6    84      1.8     0.00     146     302    868.0   64.5
 270    7:00   57.4    38    0.9   238      1.9     0.00     178     306    867.9   64.4
 270    7:10   58.8    36    0.8    78      2.6     0.00     209     312    867.7   64.3
 270    7:20   59.1    34    2.4    88      3.9     0.00     240     316    867.7   64.2
 270    7:30   60.0    33    2.2   195      3.8     0.00     271     317    867.5   64.1
 270    7:40   61.5    31    1.8   218      3.3     0.00     304     323    867.4   64.1
 270    7:50   61.8    30    1.6   241      3.0     0.00     340     323    867.2   64.0
 270    8:00   63.9    29    1.5   189      4.2     0.00     370     329    867.1   64.0
 270    8:10   65.5    28    1.5   187      3.4     0.00     404     330    866.9   64.0
 270    8:20   66.6    26    1.5   122      2.8     0.00     433     337    866.7   64.0
 270    8:30   67.2    25    1.5   123      2.7     0.00     464     339    866.5   64.0
 270    8:40   67.5    24    1.8   135      4.8     0.00     496     342    866.3   64.0
 270    8:50   67.3    24    2.2   132      4.1     0.00     524     344    866.2   64.0
 270    9:00   68.6    23    2.2   195      4.5     0.00     552     345    866.0   64.1
 270    9:10   68.3    24    2.2   308      4.2     0.00     577     348    865.8   64.1
 270    9:20   69.8    22    0.9    65      2.8     0.00     606     349    865.5   64.2
 270    9:30   72.1    21    1.3    80      3.6     0.00     630     354    865.3   64.3
 270    9:40   72.4    21    1.5    79      5.2     0.00     653     355    865.1   64.4
 270    9:50   72.8    21    2.3   143      5.2     0.00     669     361    864.9   64.5
 270   10:00   74.0    21    2.2   193      6.4     0.00     695     361    864.6   64.7
 270   10:10   74.3    20    2.3   176      4.7     0.00     715     361    864.4   64.9
 270   10:20   74.7    21    2.3   347      4.9     0.00     733     365    864.2   65.1
 270   10:30   75.1    20    2.0   173      6.0     0.00     748     364    863.9   65.4
 270   10:40   76.8    19    2.7   167      4.2     0.00     764     359    863.7   65.6
 270   10:50   76.5    19    2.2    95      4.5     0.00     778     352    863.5   65.9
 270   11:00   76.9    19    2.6    58      5.6     0.00     786     362    863.2   66.2
 270   11:10   77.2    19    2.9   339      5.7     0.00     797     368    863.0   66.5
 270   11:20   77.9    18    3.1   191      6.5     0.00     805     371    862.9   66.8
 270   11:30   79.1    17    4.2   171      9.3     0.00     809     376    862.7   67.2
 270   11:40   79.7    17    2.4   160      5.2     0.00     811     375    862.5   67.5
 270   11:50   80.8    16    3.7   163      7.5     0.00     813     381    862.3   67.9
 270   12:00   81.2    17    3.1   105      8.5     0.00     813     382    862.2   68.2
 270   12:10   80.5    17    4.7    68      7.8     0.00     812     381    861.9   68.6
 270   12:20   80.1    18    4.4    26      7.9     0.00     809     382    861.7   68.9
 270   12:30   81.6    16    4.4   143      7.8     0.00     804     383    861.5   69.3
 270   12:40   83.0    16    3.5   108      9.0     0.00     795     387    861.3   69.6
 270   12:50   82.5    16    2.7    62      7.2     0.00     790     386    861.0   70.0
 270   13:00   83.3    15    4.8    74      9.2     0.00     776     391    860.8   70.3
 270   13:10   83.7    14    1.7   100      4.1     0.00     766     386    860.6   70.6
 270   13:20   83.6    16    4.3    36      8.5     0.00     750     392    860.4   70.9
 270   13:30   83.8    14    3.6   130      8.0     0.00     733     389    860.2   71.1
 270   13:40   85.3    14    4.0   205      8.4     0.00     721     389    860.0   71.3
 270   13:50   85.4    14    3.1    10      6.9     0.00     699     390    859.8   71.6
 270   14:00   84.7    14    3.3   100      6.4     0.00     681     392    859.7   71.8
 270   14:10   85.2    14    4.9    28      9.5     0.00     659     393    859.5   72.0
 270   14:20   84.3    15    6.3    21     10.1     0.00     635     390    859.3   72.2
 270   14:30   84.7    15    6.0    38     11.4     0.00     612     388    859.2   72.3
 270   14:40   85.0    14    4.8    68      8.5     0.00     587     389    859.2   72.5
 270   14:50   85.3    14    3.9    69      9.0     0.00     561     389    859.1   72.7
 270   15:00   85.5    14    5.4    58     10.3     0.00     533     390    859.0   72.9
 270   15:10   84.7    14    6.0    42     11.6     0.00     504     388    858.9   73.0
 270   15:20   84.6    14    5.4    31      9.5     0.00     475     387    858.8   73.2
 270   15:30   85.3    14    5.0    63     10.7     0.00     444     388    858.7   73.4
 270   15:40   85.0    14    5.1    36      9.2     0.00     412     388    858.6   73.5
 270   15:50   84.8    14    4.0    17      7.8     0.00     381     382    858.5   73.7
 270   16:00   85.7    14    3.6    64      7.9     0.00     348     388    858.4   73.8
 270   16:10   85.5    14    4.6    64      8.6     0.00     314     383    858.4   74.0
 270   16:20   85.4    14    3.5    61      6.9     0.00     280     383    858.4   74.1
 270   16:30   85.4    14    3.4    65      7.0     0.00     246     381    858.3   74.2
 270   16:40   84.9    14    3.8    88      5.7     0.00     213     382    858.3   74.2
 270   16:50   84.7    14    3.8    90      7.4     0.00     180     380    858.4   74.3
 270   17:00   84.0    15    3.9    81      6.2     0.00     149     377    858.4   74.4
 270   17:10   83.1    15    5.1    76      8.1     0.00     117     373    858.4   74.4
 270   17:20   82.5    16    4.1    85      6.5     0.00      80     375    858.5   74.4
 270   17:30   81.3    16    4.3    70      8.5     0.00      39     371    858.6   74.4
 270   17:40   79.5    18    3.6    64      6.7     0.00      12     368    858.7   74.3
 270   17:50   78.3    18    3.4    70      5.8     0.00       7     367    858.9   74.3
 270   18:00   77.5    19    2.5    63      5.0     0.00       2     362    859.0   74.2
 270   18:10   75.3    21    2.1   340      3.3     0.00       1     362    859.2   74.2
 270   18:20   74.0    22    2.0   293      3.0     0.00       0     358    859.4   74.1
 270   18:30   72.2    24    2.1   286      2.8     0.00       0     357    859.7   74.0
 270   18:40   70.4    25    2.4   299      2.9     0.00       0     358    860.0   73.9
 270   18:50   69.3    26    1.7   268      2.9     0.00       0     353    860.1   73.8
 270   19:00   67.6    28    1.5   301      2.3     0.00       0     349    860.3   73.7
 270   19:10   67.2    29    1.6   275      2.4     0.00       0     350    860.5   73.6
 270   19:20   66.3    30    2.3   317      4.2     0.00       0     349    860.7   73.5
 270   19:30   64.8    32    3.0   324      4.8     0.00       0     348    860.9   73.4
 270   19:40   64.3    31    0.7   264      2.5     0.00       0     344    861.1   73.3
 270   19:50   64.9    31    1.9   254      2.7     0.00       0     342    861.2   73.1
 270   20:00   65.0    30    1.8   276      2.6     0.00       0     342    861.3   73.0
 270   20:10   63.8    31    2.1   254      3.1     0.00       0     340    861.4   72.9
 270   20:20   64.5    32    3.7   239      5.9     0.00       0     339    861.5   72.7
 270   20:30   65.0    32    2.1   253      4.1     0.00       0     340    861.5   72.6
 270   20:40   63.4    33    0.9   264      2.0     0.00       0     338    861.6   72.5
 270   20:50   62.9    34    2.2   253      3.0     0.00       0     335    861.7   72.3
 270   21:00   63.6    32    3.4   238      4.9     0.00       0     338    861.8   72.2
 270   21:10   63.9    31    2.9   252      5.6     0.00       0     337    861.9   72.0
 270   21:20   63.4    32    2.3   269      4.1     0.00       0     337    862.0   71.9
 270   21:30   62.9    33    3.4   255      4.8     0.00       0     337    862.0   71.8
 270   21:40   61.9    34    1.9   281      4.0     0.00       0     335    862.1   71.6
 270   21:50   60.1    37    1.4   292      2.8     0.00       0     329    862.2   71.5
 270   22:00   60.5    35    2.3   264      3.5     0.00       0     329    862.2   71.4
 270   22:10   59.3    37    1.7   283      2.7     0.00       0     325    862.2   71.2
 270   22:20   58.3    40    1.7   302      3.3     0.00       0     325    862.3   71.1
 270   22:30   57.1    44    1.4   323      2.6     0.00       0     327    862.4   71.0
 270   22:40   56.0    46    2.0   310      2.7     0.00       0     324    862.4   70.8
 270   22:50   55.5    46    2.4   306      3.5     0.00       0     323    862.5   70.7
 270   23:00   55.9    45    2.8   325      3.8     0.00       0     324    862.5   70.6
 270   23:10   56.4    42    2.9   318      3.8     0.00       0     320    862.5   70.5
 270   23:20   56.0    42    0.5   302      2.3     0.00       0     323    862.5   70.3
 270   23:30   55.8    43    1.7   296      2.3     0.00       0     321    862.5   70.2
 270   23:40   55.3    45    1.9   316      3.0     0.00       0     319    862.6   70.1
 270   23:50   54.2    47    1.5   305      2.0     0.00       0     317    862.6   70.0
 271    0:00   53.5    49    1.7   322      2.8     0.00       0     315    862.7   69.8
 271    0:10   53.2    50    2.0   328      3.4     0.00       0     313    862.7   69.7
 271    0:20   53.5    48    2.1   301      2.6     0.00       0     315    862.7   69.6
 271    0:30   53.1    48    1.6   284      2.0     0.00       0     313    862.7   69.5
 271    0:40   52.5    50    1.6   312      2.2     0.00       0     311    862.7   69.3
 271    0:50   52.1    50    1.9   316      2.7     0.00       0     311    862.8   69.2
 271    1:00   51.7    51    0.4   310      1.6     0.00       0     311    862.8   69.1
 271    1:10   51.2    52    2.1   318      2.8     0.00       0     308    862.8   69.0
 271    1:20   51.4    51    2.0   314      2.9     0.00       0     306    862.8   68.9
 271    1:30   51.2    52    2.0   303      2.7     0.00       0     306    862.8   68.8
 271    1:40   51.0    52    2.3   314      2.8     0.00       0     306    862.8   68.6
 271    1:50   50.7    52    0.9   333      2.0     0.00       0     306    862.7   68.5
 271    2:00   50.5    52    2.0   348      3.1     0.00       0     305    862.8   68.4
 271    2:10   49.9    53    2.6   323      3.3     0.00       0     305    862.7   68.3
 271    2:20   49.9    52    1.3   286      1.7     0.00       0     309    862.6   68.2
 271    2:30   50.1    52    1.4   304      2.2     0.00       0     310    862.6   68.1
 271    2:40   50.0    53    1.5   315      2.6     0.00       0     309    862.6   67.9
 271    2:50   49.0    56    1.7   342      2.3     0.00       0     307    862.6   67.8
 271    3:00   48.8    56    2.5   330      3.3     0.00       0     301    862.7   67.7
 271    3:10   48.4    56    2.3   323      3.4     0.00       0     301    862.8   67.6

Return to Reno (UNR), Nevada graphs page.


Western Regional Climate Center,wrcc@dri.edu